sensor_id;sensor_type;location;lat;lon;timestamp;pressure;altitude;pressure_sealevel;temperature;humidity
1207;BME280;593;53.184;8.216;2023-05-12T00:00:48;101294.06;;;15.66;100.00
1207;BME280;593;53.184;8.216;2023-05-12T00:03:13;101288.06;;;15.64;100.00
1207;BME280;593;53.184;8.216;2023-05-12T00:05:38;101285.00;;;15.66;100.00
1207;BME280;593;53.184;8.216;2023-05-12T00:08:04;101282.91;;;15.63;100.00
1207;BME280;593;53.184;8.216;2023-05-12T00:10:29;101282.34;;;15.61;100.00
1207;BME280;593;53.184;8.216;2023-05-12T00:12:55;101296.88;;;15.61;100.00
1207;BME280;593;53.184;8.216;2023-05-12T00:15:21;101289.97;;;15.64;100.00
1207;BME280;593;53.184;8.216;2023-05-12T00:17:46;101283.16;;;15.61;100.00
1207;BME280;593;53.184;8.216;2023-05-12T00:20:12;101293.03;;;15.62;100.00
1207;BME280;593;53.184;8.216;2023-05-12T00:22:38;101293.63;;;15.59;100.00
1207;BME280;593;53.184;8.216;2023-05-12T00:25:04;101298.81;;;15.61;100.00
1207;BME280;593;53.184;8.216;2023-05-12T00:27:30;101297.47;;;15.58;100.00
1207;BME280;593;53.184;8.216;2023-05-12T00:29:56;101296.38;;;15.59;100.00
1207;BME280;593;53.184;8.216;2023-05-12T00:32:22;101299.44;;;15.58;100.00
1207;BME280;593;53.184;8.216;2023-05-12T00:34:48;101292.63;;;15.55;100.00
1207;BME280;593;53.184;8.216;2023-05-12T00:37:14;101299.44;;;15.58;100.00
1207;BME280;593;53.184;8.216;2023-05-12T00:39:39;101305.72;;;15.58;100.00
1207;BME280;593;53.184;8.216;2023-05-12T00:42:04;101304.91;;;15.58;100.00
1207;BME280;593;53.184;8.216;2023-05-12T00:44:30;101300.84;;;15.55;100.00
1207;BME280;593;53.184;8.216;2023-05-12T00:46:55;101308.25;;;15.55;100.00
1207;BME280;593;53.184;8.216;2023-05-12T00:49:21;101314.00;;;15.53;100.00
1207;BME280;593;53.184;8.216;2023-05-12T00:51:47;101311.91;;;15.50;100.00
1207;BME280;593;53.184;8.216;2023-05-12T00:54:12;101324.78;;;15.50;100.00
1207;BME280;593;53.184;8.216;2023-05-12T00:56:38;101310.56;;;15.48;100.00
1207;BME280;593;53.184;8.216;2023-05-12T00:59:04;101305.22;;;15.37;100.00
1207;BME280;593;53.184;8.216;2023-05-12T01:01:32;101314.97;;;15.43;100.00
1207;BME280;593;53.184;8.216;2023-05-12T01:03:57;101302.75;;;15.36;100.00
1207;BME280;593;53.184;8.216;2023-05-12T01:06:47;101313.13;;;15.39;100.00
1207;BME280;593;53.184;8.216;2023-05-12T01:09:13;101307.53;;;15.30;100.00
1207;BME280;593;53.184;8.216;2023-05-12T01:11:39;101312.69;;;15.32;100.00
1207;BME280;593;53.184;8.216;2023-05-12T01:14:04;101320.09;;;15.31;100.00
1207;BME280;593;53.184;8.216;2023-05-12T01:16:44;101318.78;;;15.29;100.00
1207;BME280;593;53.184;8.216;2023-05-12T01:19:23;101310.63;;;15.24;100.00
1207;BME280;593;53.184;8.216;2023-05-12T01:21:52;101321.06;;;15.22;100.00
1207;BME280;593;53.184;8.216;2023-05-12T01:24:19;101317.31;;;15.18;100.00
1207;BME280;593;53.184;8.216;2023-05-12T01:26:47;101325.59;;;15.13;100.00
1207;BME280;593;53.184;8.216;2023-05-12T01:29:13;101324.78;;;15.12;100.00
1207;BME280;593;53.184;8.216;2023-05-12T01:31:38;101334.69;;;15.08;100.00
1207;BME280;593;53.184;8.216;2023-05-12T01:34:04;101336.63;;;15.08;100.00
1207;BME280;593;53.184;8.216;2023-05-12T01:36:29;101326.03;;;15.01;100.00
1207;BME280;593;53.184;8.216;2023-05-12T01:38:55;101334.25;;;15.01;100.00
1207;BME280;593;53.184;8.216;2023-05-12T01:41:20;101331.88;;;14.95;100.00
1207;BME280;593;53.184;8.216;2023-05-12T01:43:46;101324.56;;;14.90;100.00
1207;BME280;593;53.184;8.216;2023-05-12T01:46:11;101335.78;;;14.89;100.00
1207;BME280;593;53.184;8.216;2023-05-12T01:48:36;101334.47;;;14.86;100.00
1207;BME280;593;53.184;8.216;2023-05-12T01:51:06;101340.25;;;14.85;100.00
1207;BME280;593;53.184;8.216;2023-05-12T01:53:31;101337.78;;;14.83;100.00
1207;BME280;593;53.184;8.216;2023-05-12T01:55:56;101319.63;;;14.68;100.00
1207;BME280;593;53.184;8.216;2023-05-12T01:58:22;101339.19;;;14.81;100.00
1207;BME280;593;53.184;8.216;2023-05-12T02:00:47;101348.00;;;14.77;100.00
1207;BME280;593;53.184;8.216;2023-05-12T02:03:12;101333.56;;;14.72;100.00
1207;BME280;593;53.184;8.216;2023-05-12T02:05:37;101343.94;;;14.75;100.00
1207;BME280;593;53.184;8.216;2023-05-12T02:08:03;101341.53;;;14.68;100.00
1207;BME280;593;53.184;8.216;2023-05-12T02:10:28;101341.84;;;14.67;100.00
1207;BME280;593;53.184;8.216;2023-05-12T02:12:54;101347.59;;;14.65;100.00
1207;BME280;593;53.184;8.216;2023-05-12T02:15:19;101345.16;;;14.64;100.00
1207;BME280;593;53.184;8.216;2023-05-12T02:17:45;101345.97;;;14.64;100.00
1207;BME280;593;53.184;8.216;2023-05-12T02:20:10;101345.16;;;14.64;100.00
1207;BME280;593;53.184;8.216;2023-05-12T02:22:36;101351.00;;;14.57;100.00
1207;BME280;593;53.184;8.216;2023-05-12T02:25:01;101352.91;;;14.57;100.00
1207;BME280;593;53.184;8.216;2023-05-12T02:27:27;101358.91;;;14.59;100.00
1207;BME280;593;53.184;8.216;2023-05-12T02:29:52;101358.91;;;14.59;100.00
1207;BME280;593;53.184;8.216;2023-05-12T02:32:18;101352.66;;;14.53;100.00
1207;BME280;593;53.184;8.216;2023-05-12T02:34:43;101353.47;;;14.54;100.00
1207;BME280;593;53.184;8.216;2023-05-12T02:37:09;101352.16;;;14.51;100.00
1207;BME280;593;53.184;8.216;2023-05-12T02:39:35;101353.28;;;14.50;100.00
1207;BME280;593;53.184;8.216;2023-05-12T02:42:00;101348.66;;;14.46;100.00
1207;BME280;593;53.184;8.216;2023-05-12T02:44:25;101355.75;;;14.47;100.00
1207;BME280;593;53.184;8.216;2023-05-12T02:46:51;101352.50;;;14.45;100.00
1207;BME280;593;53.184;8.216;2023-05-12T02:49:17;101349.53;;;14.41;100.00
1207;BME280;593;53.184;8.216;2023-05-12T02:51:42;101348.44;;;14.42;100.00
1207;BME280;593;53.184;8.216;2023-05-12T02:54:07;101351.22;;;14.37;100.00
1207;BME280;593;53.184;8.216;2023-05-12T02:56:32;101343.28;;;14.36;100.00
1207;BME280;593;53.184;8.216;2023-05-12T02:58:58;101342.19;;;14.37;100.00
1207;BME280;593;53.184;8.216;2023-05-12T03:01:23;101339.22;;;14.33;100.00
1207;BME280;593;53.184;8.216;2023-05-12T03:03:48;101349.88;;;14.35;100.00
1207;BME280;593;53.184;8.216;2023-05-12T03:06:14;101355.63;;;14.33;100.00
1207;BME280;593;53.184;8.216;2023-05-12T03:08:39;101351.00;;;14.29;100.00
1207;BME280;593;53.184;8.216;2023-05-12T03:11:04;101346.06;;;14.31;100.00
1207;BME280;593;53.184;8.216;2023-05-12T03:13:30;101349.38;;;14.28;100.00
1207;BME280;593;53.184;8.216;2023-05-12T03:15:55;101341.75;;;14.25;100.00
1207;BME280;593;53.184;8.216;2023-05-12T03:18:25;101348.84;;;14.26;100.00
1207;BME280;593;53.184;8.216;2023-05-12T03:20:50;101345.59;;;14.24;100.00
1207;BME280;593;53.184;8.216;2023-05-12T03:23:15;101345.38;;;14.20;100.00
1207;BME280;593;53.184;8.216;2023-05-12T03:25:41;101352.19;;;14.23;100.00
1207;BME280;593;53.184;8.216;2023-05-12T03:28:06;101362.56;;;14.21;100.00
1207;BME280;593;53.184;8.216;2023-05-12T03:30:31;101358.22;;;14.20;100.00
1207;BME280;593;53.184;8.216;2023-05-12T03:32:57;101383.94;;;14.19;100.00
1207;BME280;593;53.184;8.216;2023-05-12T03:35:22;101370.25;;;14.19;100.00
1207;BME280;593;53.184;8.216;2023-05-12T03:37:47;101372.78;;;14.15;100.00
1207;BME280;593;53.184;8.216;2023-05-12T03:40:13;101378.25;;;14.15;100.00
1207;BME280;593;53.184;8.216;2023-05-12T03:42:42;101366.19;;;14.16;100.00
1207;BME280;593;53.184;8.216;2023-05-12T03:45:08;101371.13;;;14.14;100.00
1207;BME280;593;53.184;8.216;2023-05-12T03:47:33;101371.13;;;14.14;100.00
1207;BME280;593;53.184;8.216;2023-05-12T03:49:59;101369.50;;;14.13;100.00
1207;BME280;593;53.184;8.216;2023-05-12T03:52:25;101370.81;;;14.15;100.00
1207;BME280;593;53.184;8.216;2023-05-12T03:54:50;101361.59;;;14.11;100.00
1207;BME280;593;53.184;8.216;2023-05-12T03:57:16;101369.22;;;14.14;100.00
1207;BME280;593;53.184;8.216;2023-05-12T03:59:42;101372.78;;;14.15;100.00
1207;BME280;593;53.184;8.216;2023-05-12T04:02:07;101376.84;;;14.18;100.00
1207;BME280;593;53.184;8.216;2023-05-12T04:04:36;101370.56;;;14.17;100.00
1207;BME280;593;53.184;8.216;2023-05-12T04:07:01;101375.72;;;14.19;100.00
1207;BME280;593;53.184;8.216;2023-05-12T04:09:26;101378.47;;;14.19;100.00
1207;BME280;593;53.184;8.216;2023-05-12T04:11:52;101382.03;;;14.19;100.00
1207;BME280;593;53.184;8.216;2023-05-12T04:14:17;101371.38;;;14.18;100.00
1207;BME280;593;53.184;8.216;2023-05-12T04:16:43;101372.72;;;14.20;100.00
1207;BME280;593;53.184;8.216;2023-05-12T04:19:08;101375.16;;;14.22;100.00
1207;BME280;593;53.184;8.216;2023-05-12T04:21:34;101384.19;;;14.22;100.00
1207;BME280;593;53.184;8.216;2023-05-12T04:23:59;101379.00;;;14.21;100.00
1207;BME280;593;53.184;8.216;2023-05-12T04:26:25;101386.63;;;14.24;100.00
1207;BME280;593;53.184;8.216;2023-05-12T04:28:51;101378.41;;;14.24;100.00
1207;BME280;593;53.184;8.216;2023-05-12T04:31:16;101391.00;;;14.25;100.00
1207;BME280;593;53.184;8.216;2023-05-12T04:33:41;101389.63;;;14.27;100.00
1207;BME280;593;53.184;8.216;2023-05-12T04:36:07;101391.22;;;14.28;100.00
1207;BME280;593;53.184;8.216;2023-05-12T04:38:32;101393.69;;;14.30;100.00
1207;BME280;593;53.184;8.216;2023-05-12T04:40:58;101398.34;;;14.29;100.00
1207;BME280;593;53.184;8.216;2023-05-12T04:43:24;101404.63;;;14.30;100.00
1207;BME280;593;53.184;8.216;2023-05-12T04:45:50;101413.41;;;14.32;100.00
1207;BME280;593;53.184;8.216;2023-05-12T04:48:18;101416.13;;;14.32;100.00
1207;BME280;593;53.184;8.216;2023-05-12T04:50:43;101413.94;;;14.34;100.00
1207;BME280;593;53.184;8.216;2023-05-12T04:53:08;101419.41;;;14.34;100.00
1207;BME280;593;53.184;8.216;2023-05-12T04:55:35;101425.41;;;14.36;100.00
1207;BME280;593;53.184;8.216;2023-05-12T04:58:01;101417.19;;;14.36;100.00
1207;BME280;593;53.184;8.216;2023-05-12T05:00:27;101425.66;;;14.39;100.00
1207;BME280;593;53.184;8.216;2023-05-12T05:02:52;101428.38;;;14.39;100.00
1207;BME280;593;53.184;8.216;2023-05-12T05:05:17;101437.13;;;14.41;100.00
1207;BME280;593;53.184;8.216;2023-05-12T05:07:43;101433.28;;;14.42;100.00
1207;BME280;593;53.184;8.216;2023-05-12T05:10:08;101434.09;;;14.43;100.00
1207;BME280;593;53.184;8.216;2023-05-12T05:12:33;101435.50;;;14.40;100.00
1207;BME280;593;53.184;8.216;2023-05-12T05:14:59;101448.59;;;14.43;100.00
1207;BME280;593;53.184;8.216;2023-05-12T05:17:24;101451.06;;;14.45;100.00
1207;BME280;593;53.184;8.216;2023-05-12T05:19:49;101454.31;;;14.47;100.00
1207;BME280;593;53.184;8.216;2023-05-12T05:22:15;101458.41;;;14.49;100.00
1207;BME280;593;53.184;8.216;2023-05-12T05:24:40;101453.75;;;14.50;100.00
1207;BME280;593;53.184;8.216;2023-05-12T05:27:06;101455.91;;;14.53;100.00
1207;BME280;593;53.184;8.216;2023-05-12T05:29:31;101454.25;;;14.52;100.00
1207;BME280;593;53.184;8.216;2023-05-12T05:31:56;101458.09;;;14.51;100.00
1207;BME280;593;53.184;8.216;2023-05-12T05:34:22;101461.91;;;14.55;100.00
1207;BME280;593;53.184;8.216;2023-05-12T05:36:48;101469.00;;;14.56;100.00
1207;BME280;593;53.184;8.216;2023-05-12T05:39:14;101479.09;;;14.60;100.00
1207;BME280;593;53.184;8.216;2023-05-12T05:41:42;101466.25;;;14.56;100.00
1207;BME280;593;53.184;8.216;2023-05-12T05:44:08;101462.13;;;14.58;100.00
1207;BME280;593;53.184;8.216;2023-05-12T05:46:33;101470.28;;;14.63;100.00
1207;BME280;593;53.184;8.216;2023-05-12T05:48:58;101469.19;;;14.64;100.00
1207;BME280;593;53.184;8.216;2023-05-12T05:51:23;101476.00;;;14.67;100.00
1207;BME280;593;53.184;8.216;2023-05-12T05:53:49;101465.06;;;14.67;100.00
1207;BME280;593;53.184;8.216;2023-05-12T05:56:14;101470.22;;;14.68;100.00
1207;BME280;593;53.184;8.216;2023-05-12T05:58:39;101469.72;;;14.66;100.00
1207;BME280;593;53.184;8.216;2023-05-12T06:01:05;101482.53;;;14.71;100.00
1207;BME280;593;53.184;8.216;2023-05-12T06:03:31;101483.06;;;14.73;100.00
1207;BME280;593;53.184;8.216;2023-05-12T06:05:56;101482.47;;;14.76;100.00
1207;BME280;593;53.184;8.216;2023-05-12T06:08:22;101479.22;;;14.74;100.00
1207;BME280;593;53.184;8.216;2023-05-12T06:10:47;101492.88;;;14.79;100.00
1207;BME280;593;53.184;8.216;2023-05-12T06:13:12;101482.47;;;14.76;100.00
1207;BME280;593;53.184;8.216;2023-05-12T06:15:38;101489.25;;;14.84;100.00
1207;BME280;593;53.184;8.216;2023-05-12T06:18:03;101494.44;;;14.85;100.00
1207;BME280;593;53.184;8.216;2023-05-12T06:20:29;101496.31;;;14.90;100.00
1207;BME280;593;53.184;8.216;2023-05-12T06:22:55;101495.75;;;14.93;100.00
1207;BME280;593;53.184;8.216;2023-05-12T06:25:21;101492.19;;;14.92;100.00
1207;BME280;593;53.184;8.216;2023-05-12T06:27:46;101507.97;;;15.00;100.00
1207;BME280;593;53.184;8.216;2023-05-12T06:30:12;101510.13;;;15.03;100.00
1207;BME280;593;53.184;8.216;2023-05-12T06:32:37;101502.19;;;15.02;100.00
1207;BME280;593;53.184;8.216;2023-05-12T06:35:03;101509.84;;;15.05;100.00
1207;BME280;593;53.184;8.216;2023-05-12T06:37:28;101506.81;;;15.06;100.00
1207;BME280;593;53.184;8.216;2023-05-12T06:39:53;101506.47;;;15.13;100.00
1207;BME280;593;53.184;8.216;2023-05-12T06:42:19;101519.28;;;15.17;100.00
1207;BME280;593;53.184;8.216;2023-05-12T06:44:44;101518.72;;;15.20;100.00
1207;BME280;593;53.184;8.216;2023-05-12T06:47:10;101509.66;;;15.20;100.00
1207;BME280;593;53.184;8.216;2023-05-12T06:49:35;101503.66;;;15.18;100.00
1207;BME280;593;53.184;8.216;2023-05-12T06:52:03;101528.94;;;15.33;100.00
1207;BME280;593;53.184;8.216;2023-05-12T06:54:28;101527.28;;;15.37;100.00
1207;BME280;593;53.184;8.216;2023-05-12T06:56:54;101499.75;;;15.24;100.00
1207;BME280;593;53.184;8.216;2023-05-12T06:59:19;101519.25;;;15.41;100.00
1207;BME280;593;53.184;8.216;2023-05-12T07:01:44;101516.31;;;15.37;100.00
1207;BME280;593;53.184;8.216;2023-05-12T07:04:09;101527.38;;;15.51;100.00
1207;BME280;593;53.184;8.216;2023-05-12T07:06:35;101532.00;;;15.56;100.00
1207;BME280;593;53.184;8.216;2023-05-12T07:09:00;101521.56;;;15.58;100.00
1207;BME280;593;53.184;8.216;2023-05-12T07:11:25;101540.69;;;15.63;100.00
1207;BME280;593;53.184;8.216;2023-05-12T07:13:51;101537.88;;;15.68;100.00
1207;BME280;593;53.184;8.216;2023-05-12T07:16:18;101546.91;;;15.68;100.00
1207;BME280;593;53.184;8.216;2023-05-12T07:18:43;101537.50;;;15.74;100.00
1207;BME280;593;53.184;8.216;2023-05-12T07:21:09;101538.84;;;15.77;100.00
1207;BME280;593;53.184;8.216;2023-05-12T07:23:35;101539.88;;;15.81;100.00
1207;BME280;593;53.184;8.216;2023-05-12T07:26:01;101540.34;;;15.88;100.00
1207;BME280;593;53.184;8.216;2023-05-12T07:28:32;101529.38;;;15.88;100.00
1207;BME280;593;53.184;8.216;2023-05-12T07:31:00;101538.03;;;15.95;100.00
1207;BME280;593;53.184;8.216;2023-05-12T07:33:26;101542.63;;;15.99;100.00
1207;BME280;593;53.184;8.216;2023-05-12T07:35:51;101543.47;;;16.00;100.00
1207;BME280;593;53.184;8.216;2023-05-12T07:38:16;101537.66;;;16.01;100.00
1207;BME280;593;53.184;8.216;2023-05-12T07:40:42;101539.22;;;16.08;100.00
1207;BME280;593;53.184;8.216;2023-05-12T07:43:09;101548.22;;;16.13;100.00
1207;BME280;593;53.184;8.216;2023-05-12T07:45:34;101551.97;;;16.17;100.00
1207;BME280;593;53.184;8.216;2023-05-12T07:47:59;101552.56;;;16.33;100.00
1207;BME280;593;53.184;8.216;2023-05-12T07:50:25;101557.44;;;16.36;100.00
1207;BME280;593;53.184;8.216;2023-05-12T07:52:51;101556.25;;;16.42;100.00
1207;BME280;593;53.184;8.216;2023-05-12T07:55:18;101562.50;;;16.47;100.00
1207;BME280;593;53.184;8.216;2023-05-12T07:57:44;101550.31;;;16.53;100.00
1207;BME280;593;53.184;8.216;2023-05-12T08:00:10;101549.13;;;16.59;100.00
1207;BME280;593;53.184;8.216;2023-05-12T08:02:36;101553.13;;;16.67;100.00
1207;BME280;593;53.184;8.216;2023-05-12T08:05:02;101550.50;;;16.76;100.00
1207;BME280;593;53.184;8.216;2023-05-12T08:07:28;101543.50;;;16.83;100.00
1207;BME280;593;53.184;8.216;2023-05-12T08:09:53;101545.63;;;16.86;100.00
1207;BME280;593;53.184;8.216;2023-05-12T08:12:19;101543.00;;;16.95;100.00
1207;BME280;593;53.184;8.216;2023-05-12T08:14:45;101542.50;;;17.06;100.00
1207;BME280;593;53.184;8.216;2023-05-12T08:17:10;101537.94;;;17.15;100.00
1207;BME280;593;53.184;8.216;2023-05-12T08:19:35;101552.59;;;17.24;100.00
1207;BME280;593;53.184;8.216;2023-05-12T08:22:00;101562.88;;;17.33;100.00
1207;BME280;593;53.184;8.216;2023-05-12T08:24:26;101554.72;;;17.41;100.00
1207;BME280;593;53.184;8.216;2023-05-12T08:26:52;101568.84;;;17.53;100.00
1207;BME280;593;53.184;8.216;2023-05-12T08:29:17;101556.59;;;17.59;100.00
1207;BME280;593;53.184;8.216;2023-05-12T08:31:43;101560.88;;;17.65;100.00
1207;BME280;593;53.184;8.216;2023-05-12T08:34:08;101566.16;;;17.75;100.00
1207;BME280;593;53.184;8.216;2023-05-12T08:36:34;101561.66;;;17.79;100.00
1207;BME280;593;53.184;8.216;2023-05-12T08:39:01;101563.19;;;17.85;100.00
1207;BME280;593;53.184;8.216;2023-05-12T08:41:43;101570.06;;;17.97;100.00
1207;BME280;593;53.184;8.216;2023-05-12T08:44:10;101571.09;;;18.01;100.00
1207;BME280;593;53.184;8.216;2023-05-12T08:46:36;101574.25;;;18.08;100.00
1207;BME280;593;53.184;8.216;2023-05-12T08:49:05;101577.06;;;18.16;100.00
1207;BME280;593;53.184;8.216;2023-05-12T08:51:35;101569.31;;;18.18;100.00
1207;BME280;593;53.184;8.216;2023-05-12T08:54:03;101582.53;;;18.30;100.00
1207;BME280;593;53.184;8.216;2023-05-12T08:56:28;101583.53;;;18.34;100.00
1207;BME280;593;53.184;8.216;2023-05-12T08:58:54;101579.53;;;18.40;100.00
1207;BME280;593;53.184;8.216;2023-05-12T09:01:20;101581.34;;;18.44;100.00
1207;BME280;593;53.184;8.216;2023-05-12T09:03:47;101584.34;;;18.48;99.75
1207;BME280;593;53.184;8.216;2023-05-12T09:06:12;101587.47;;;18.55;99.59
1207;BME280;593;53.184;8.216;2023-05-12T09:08:39;101577.44;;;18.59;99.72
1207;BME280;593;53.184;8.216;2023-05-12T09:11:04;101578.63;;;18.67;99.52
1207;BME280;593;53.184;8.216;2023-05-12T09:13:46;101587.47;;;18.77;99.90
1207;BME280;593;53.184;8.216;2023-05-12T09:16:14;101587.19;;;18.87;98.98
1207;BME280;593;53.184;8.216;2023-05-12T09:18:53;101597.47;;;18.95;99.13
1207;BME280;593;53.184;8.216;2023-05-12T09:21:19;101592.81;;;19.04;97.70
1207;BME280;593;53.184;8.216;2023-05-12T09:23:52;101586.84;;;19.11;95.84
1207;BME280;593;53.184;8.216;2023-05-12T09:26:18;101592.41;;;19.19;94.84
1207;BME280;593;53.184;8.216;2023-05-12T09:28:44;101590.00;;;19.27;95.25
1207;BME280;593;53.184;8.216;2023-05-12T09:31:20;101598.84;;;19.37;94.29
1207;BME280;593;53.184;8.216;2023-05-12T09:33:46;101598.41;;;19.44;92.27
1207;BME280;593;53.184;8.216;2023-05-12T09:36:22;101604.91;;;19.48;90.08
1207;BME280;593;53.184;8.216;2023-05-12T09:39:03;101601.50;;;19.59;86.81
1207;BME280;593;53.184;8.216;2023-05-12T09:41:39;101592.78;;;19.66;86.95
1207;BME280;593;53.184;8.216;2023-05-12T09:44:06;101588.25;;;19.70;87.68
1207;BME280;593;53.184;8.216;2023-05-12T09:46:32;101586.81;;;19.81;88.05
1207;BME280;593;53.184;8.216;2023-05-12T09:48:58;101598.69;;;19.90;89.17
1207;BME280;593;53.184;8.216;2023-05-12T09:51:25;101596.44;;;20.01;88.84
1207;BME280;593;53.184;8.216;2023-05-12T09:53:51;101586.06;;;20.06;86.45
1207;BME280;593;53.184;8.216;2023-05-12T09:56:17;101595.78;;;20.12;85.26
1207;BME280;593;53.184;8.216;2023-05-12T09:58:47;101594.16;;;20.20;84.65
1207;BME280;593;53.184;8.216;2023-05-12T10:01:15;101599.41;;;20.30;84.74
1207;BME280;593;53.184;8.216;2023-05-12T10:03:41;101586.72;;;20.37;84.30
1207;BME280;593;53.184;8.216;2023-05-12T10:06:11;101596.50;;;20.43;83.37
1207;BME280;593;53.184;8.216;2023-05-12T10:09:37;101589.97;;;20.48;82.28
1207;BME280;593;53.184;8.216;2023-05-12T10:11:39;101590.47;;;20.59;81.48
1207;BME280;593;53.184;8.216;2023-05-12T10:14:04;101591.13;;;20.64;82.79
1207;BME280;593;53.184;8.216;2023-05-12T10:16:32;101597.28;;;20.70;82.16
1207;BME280;593;53.184;8.216;2023-05-12T10:18:57;101590.44;;;20.76;81.08
1207;BME280;593;53.184;8.216;2023-05-12T10:21:24;101598.22;;;20.82;80.35
1207;BME280;593;53.184;8.216;2023-05-12T10:23:51;101601.97;;;20.86;78.83
1207;BME280;593;53.184;8.216;2023-05-12T10:26:17;101593.81;;;20.90;77.40
1207;BME280;593;53.184;8.216;2023-05-12T10:28:44;101596.41;;;21.03;78.06
1207;BME280;593;53.184;8.216;2023-05-12T10:31:10;101602.94;;;21.07;77.25
1207;BME280;593;53.184;8.216;2023-05-12T10:33:35;101588.59;;;21.14;76.60
1207;BME280;593;53.184;8.216;2023-05-12T10:36:01;101589.38;;;21.23;76.19
1207;BME280;593;53.184;8.216;2023-05-12T10:38:34;101597.50;;;21.28;77.68
1207;BME280;593;53.184;8.216;2023-05-12T10:41:02;101586.88;;;21.39;77.85
1207;BME280;593;53.184;8.216;2023-05-12T10:43:38;101582.94;;;21.40;75.60
1207;BME280;593;53.184;8.216;2023-05-12T10:46:14;101597.72;;;21.52;67.10
1207;BME280;593;53.184;8.216;2023-05-12T10:49:05;101601.09;;;21.58;66.73
1207;BME280;593;53.184;8.216;2023-05-12T10:51:33;101599.63;;;21.60;67.50
1207;BME280;593;53.184;8.216;2023-05-12T10:54:03;101607.28;;;21.63;67.96
1207;BME280;593;53.184;8.216;2023-05-12T10:56:42;101590.13;;;21.70;67.58
1207;BME280;593;53.184;8.216;2023-05-12T11:04:40;101603.09;;;21.87;67.44
1207;BME280;593;53.184;8.216;2023-05-12T11:07:08;101597.69;;;21.90;67.83
1207;BME280;593;53.184;8.216;2023-05-12T11:09:35;101599.31;;;21.91;66.97
1207;BME280;593;53.184;8.216;2023-05-12T11:12:01;101591.94;;;21.95;66.59
1207;BME280;593;53.184;8.216;2023-05-12T11:14:26;101590.16;;;21.99;65.99
1207;BME280;593;53.184;8.216;2023-05-12T11:16:52;101596.16;;;22.01;61.57
1207;BME280;593;53.184;8.216;2023-05-12T11:19:17;101593.88;;;22.03;60.71
1207;BME280;593;53.184;8.216;2023-05-12T11:21:43;101598.38;;;22.08;59.59
1207;BME280;593;53.184;8.216;2023-05-12T11:24:08;101603.72;;;22.13;59.84
1207;BME280;593;53.184;8.216;2023-05-12T11:26:34;101592.44;;;22.18;62.74
1207;BME280;593;53.184;8.216;2023-05-12T11:29:02;101593.72;;;22.20;59.82
1207;BME280;593;53.184;8.216;2023-05-12T11:31:28;101585.56;;;22.24;59.53
1207;BME280;593;53.184;8.216;2023-05-12T11:34:07;101595.44;;;22.33;61.32
1207;BME280;593;53.184;8.216;2023-05-12T11:36:42;101590.56;;;22.30;59.47
1207;BME280;593;53.184;8.216;2023-05-12T11:39:18;101594.97;;;22.31;57.71
1207;BME280;593;53.184;8.216;2023-05-12T11:41:45;101599.94;;;22.38;55.34
1207;BME280;593;53.184;8.216;2023-05-12T11:44:15;101588.66;;;22.43;54.28
1207;BME280;593;53.184;8.216;2023-05-12T11:46:41;101598.72;;;22.48;54.76
1207;BME280;593;53.184;8.216;2023-05-12T11:49:10;101601.84;;;22.46;52.95
1207;BME280;593;53.184;8.216;2023-05-12T11:51:42;101599.06;;;22.46;54.75
1207;BME280;593;53.184;8.216;2023-05-12T11:54:07;101595.94;;;22.48;54.78
1207;BME280;593;53.184;8.216;2023-05-12T11:56:33;101596.91;;;22.52;56.11
1207;BME280;593;53.184;8.216;2023-05-12T11:59:01;101593.56;;;22.58;58.02
1207;BME280;593;53.184;8.216;2023-05-12T12:01:30;101597.31;;;22.62;56.91
1207;BME280;593;53.184;8.216;2023-05-12T12:03:58;101596.31;;;22.67;56.12
1207;BME280;593;53.184;8.216;2023-05-12T12:06:24;101602.44;;;22.72;56.92
1207;BME280;593;53.184;8.216;2023-05-12T12:08:57;101609.56;;;22.82;59.67
1207;BME280;593;53.184;8.216;2023-05-12T12:11:27;101611.75;;;22.88;56.69
1207;BME280;593;53.184;8.216;2023-05-12T12:13:56;101612.69;;;22.92;54.47
1207;BME280;593;53.184;8.216;2023-05-12T12:16:28;101603.69;;;22.95;55.30
1207;BME280;593;53.184;8.216;2023-05-12T12:18:57;101615.38;;;23.01;59.09
1207;BME280;593;53.184;8.216;2023-05-12T12:21:23;101602.53;;;22.96;51.96
1207;BME280;593;53.184;8.216;2023-05-12T12:23:50;101618.50;;;23.00;54.06
1207;BME280;593;53.184;8.216;2023-05-12T12:26:17;101618.75;;;23.07;54.75
1207;BME280;593;53.184;8.216;2023-05-12T12:28:45;101622.81;;;23.09;54.83
1207;BME280;593;53.184;8.216;2023-05-12T12:31:12;101617.94;;;23.06;51.34
1207;BME280;593;53.184;8.216;2023-05-12T12:33:38;101620.84;;;23.10;52.76
1207;BME280;593;53.184;8.216;2023-05-12T12:36:05;101616.09;;;23.10;54.70
1207;BME280;593;53.184;8.216;2023-05-12T12:38:31;101620.84;;;23.10;51.54
1207;BME280;593;53.184;8.216;2023-05-12T12:41:06;101609.53;;;23.15;52.27
1207;BME280;593;53.184;8.216;2023-05-12T12:43:57;101611.38;;;23.23;55.24
1207;BME280;593;53.184;8.216;2023-05-12T12:46:24;101612.31;;;23.27;55.57
1207;BME280;593;53.184;8.216;2023-05-12T12:48:49;101626.19;;;23.27;53.77
1207;BME280;593;53.184;8.216;2023-05-12T12:51:15;101616.38;;;23.29;53.86
1207;BME280;593;53.184;8.216;2023-05-12T12:53:40;101609.19;;;23.28;52.53
1207;BME280;593;53.184;8.216;2023-05-12T12:56:07;101609.78;;;23.34;54.44
1207;BME280;593;53.184;8.216;2023-05-12T12:58:33;101600.63;;;23.33;54.46
1207;BME280;593;53.184;8.216;2023-05-12T13:00:58;101610.88;;;23.41;54.39
1207;BME280;593;53.184;8.216;2023-05-12T13:03:23;101604.50;;;23.41;55.38
1207;BME280;593;53.184;8.216;2023-05-12T13:05:49;101608.19;;;23.45;55.58
1207;BME280;593;53.184;8.216;2023-05-12T13:08:18;101597.78;;;23.42;55.41
1207;BME280;593;53.184;8.216;2023-05-12T13:10:46;101601.84;;;23.44;56.43
1207;BME280;593;53.184;8.216;2023-05-12T13:13:11;101610.41;;;23.51;56.18
1207;BME280;593;53.184;8.216;2023-05-12T13:15:37;101610.41;;;23.51;51.16
1207;BME280;593;53.184;8.216;2023-05-12T13:18:03;101614.00;;;23.52;52.12